Terminal Aerodrome Forecast
Issued by NWS

Home | Current Version | Previous Version | Graphics & Text | Print | Product List | Glossary On
Versions: 1 2 3 4 5 6 7 8 9 10 11 12 13 14 15 16 17 18 19 20 21 22 23 24 25 26 27 28 29 30 31 32 33
000
FTUS43 KLOT 241700
TAFORD
TAF
KORD 241727Z 2418/2524 06011KT P6SM FEW030
     FM250200 10005KT P6SM FEW250
     FM250500 VRB03KT P6SM FEW200
     FM251400 21007KT P6SM SCT250
     FM251900 19009G14KT P6SM SCT025 BKN060 PROB30 2519/2524 -TSRA
      BKN025CB=

USA.gov is the U.S. government's official web portal to all federal, state and local government web resources and services.